createdAt,value
2022-12-03T00:02:18.843Z,102819.78
2022-12-03T00:04:45.608Z,102815.44
2022-12-03T00:07:12.062Z,102817.19
2022-12-03T00:09:38.685Z,102810.22
2022-12-03T00:12:05.268Z,102807.59
2022-12-03T00:14:31.771Z,102811.94
2022-12-03T00:16:58.224Z,102810.22
2022-12-03T00:19:24.844Z,102803.22
2022-12-03T00:21:51.430Z,102810.22
2022-12-03T00:24:17.929Z,102804.09
2022-12-03T00:26:44.466Z,102817.16
2022-12-03T00:29:11.282Z,102806.72
2022-12-03T00:31:37.901Z,102806.72
2022-12-03T00:34:04.467Z,102800.59
2022-12-03T00:36:30.946Z,102800.59
2022-12-03T00:38:57.399Z,102796.25
2022-12-03T00:41:23.863Z,102796.25
2022-12-03T00:43:50.354Z,102792.75
2022-12-03T00:46:21.095Z,102788.38
2022-12-03T00:48:48.201Z,102795.38
2022-12-03T00:51:18.259Z,102788.38
2022-12-03T00:53:46.185Z,102790.13
2022-12-03T00:56:12.846Z,102785.78
2022-12-03T00:58:39.308Z,102789.25
2022-12-03T01:01:05.915Z,102779.66
2022-12-03T01:03:32.399Z,102781.41
2022-12-03T01:05:59.011Z,102788.38
2022-12-03T01:08:25.460Z,102775.31
2022-12-03T01:10:51.996Z,102773.56
2022-12-03T01:13:18.508Z,102765.72
2022-12-03T01:15:45.009Z,102777.03
2022-12-03T01:18:11.585Z,102771.81
2022-12-03T01:20:38.689Z,102769.19
2022-12-03T01:23:05.768Z,102774.41
2022-12-03T01:25:32.348Z,102772.66
2022-12-03T01:27:59.663Z,102770.06
2022-12-03T01:30:26.103Z,102763.09
2022-12-03T01:32:52.739Z,102765.69
2022-12-03T01:35:19.239Z,102762.19
2022-12-03T01:37:45.760Z,102761.31
2022-12-03T01:40:19.763Z,102770.06
2022-12-03T01:42:57.094Z,102763.06
2022-12-03T01:45:27.120Z,102767.44
2022-12-03T01:47:53.605Z,102752.56
2022-12-03T01:50:33.627Z,102755.19
2022-12-03T01:53:04.820Z,102747.34
2022-12-03T01:55:31.806Z,102748.22
2022-12-03T01:58:01.866Z,102747.34
2022-12-03T02:00:28.988Z,102746.47
2022-12-03T02:02:57.918Z,102736.88
2022-12-03T02:05:27.285Z,102737.75
2022-12-03T02:07:53.917Z,102748.22
2022-12-03T02:10:26.188Z,102738.59
2022-12-03T02:13:00.907Z,102748.22
2022-12-03T02:15:27.675Z,102735.13
2022-12-03T02:17:55.365Z,102730.75
2022-12-03T02:20:22.331Z,102734.25
2022-12-03T02:23:05.255Z,102733.34
2022-12-03T02:25:34.682Z,102736.81
2022-12-03T02:28:02.798Z,102736.81
2022-12-03T02:30:31.028Z,102734.19
2022-12-03T02:32:58.244Z,102729.84
2022-12-03T02:35:29.798Z,102727.22
2022-12-03T02:38:02.596Z,102735.06
2022-12-03T02:40:32.796Z,102727.22
2022-12-03T02:43:02.463Z,102725.44
2022-12-03T02:45:32.456Z,102717.56
2022-12-03T02:48:39.404Z,102724.50
2022-12-03T02:51:09.349Z,102718.41
2022-12-03T02:53:44.392Z,102714.91
2022-12-03T02:56:13.888Z,102718.41
2022-12-03T02:58:41.960Z,102714.91
2022-12-03T03:01:09.543Z,102700.13
2022-12-03T03:03:37.564Z,102705.28
2022-12-03T03:06:07.018Z,102717.53
2022-12-03T03:08:34.276Z,102706.19
2022-12-03T03:11:02.383Z,102699.16
2022-12-03T03:13:31.115Z,102702.69
2022-12-03T03:15:57.729Z,102706.16
2022-12-03T03:18:24.313Z,102694.81
2022-12-03T03:20:51.151Z,102699.19
2022-12-03T03:23:19.893Z,102699.16
2022-12-03T03:26:10.415Z,102694.81
2022-12-03T03:28:44.289Z,102700.94
2022-12-03T03:31:14.057Z,102691.31
2022-12-03T03:33:43.473Z,102700.88
2022-12-03T03:36:10.305Z,102700.06
2022-12-03T03:38:37.955Z,102694.81
2022-12-03T03:41:05.950Z,102693.03
2022-12-03T03:43:35.192Z,102692.16
2022-12-03T03:46:04.806Z,102689.53
2022-12-03T03:48:34.070Z,102686.00
2022-12-03T03:51:03.724Z,102678.19
2022-12-03T03:53:30.895Z,102684.25
2022-12-03T03:55:57.537Z,102680.75
2022-12-03T03:58:27.679Z,102684.28
2022-12-03T04:00:54.397Z,102681.69
2022-12-03T04:03:21.012Z,102672.91
2022-12-03T04:05:47.885Z,102676.41
2022-12-03T04:08:14.396Z,102672.03
2022-12-03T04:10:59.608Z,102678.13
2022-12-03T04:13:26.128Z,102671.16
2022-12-03T04:15:52.743Z,102670.28
2022-12-03T04:18:37.916Z,102668.53
2022-12-03T04:21:23.152Z,102665.03
2022-12-03T04:23:49.671Z,102665.94
2022-12-03T04:26:34.734Z,102672.88
2022-12-03T04:29:01.227Z,102664.19
2022-12-03T04:31:49.396Z,102668.53
2022-12-03T04:34:34.273Z,102666.78
2022-12-03T04:37:00.810Z,102666.84
2022-12-03T04:39:27.276Z,102678.16
2022-12-03T04:41:53.808Z,102667.72
2022-12-03T04:44:36.444Z,102671.19
2022-12-03T04:47:17.775Z,102659.84
2022-12-03T04:49:46.728Z,102666.84
2022-12-03T04:52:14.937Z,102658.97
2022-12-03T04:54:41.456Z,102667.75
2022-12-03T04:57:09.291Z,102653.75
2022-12-03T04:59:36.524Z,102662.47
2022-12-03T05:02:04.092Z,102657.28
2022-12-03T05:04:31.141Z,102657.31
2022-12-03T05:07:00.783Z,102658.13
2022-12-03T05:09:27.271Z,102652.88
2022-12-03T05:11:53.839Z,102652.88
2022-12-03T05:14:20.341Z,102650.31
2022-12-03T05:16:46.911Z,102659.00
2022-12-03T05:19:13.588Z,102654.63
2022-12-03T05:21:40.052Z,102653.81
2022-12-03T05:24:06.702Z,102654.63
2022-12-03T05:26:33.238Z,102655.47
2022-12-03T05:28:59.788Z,102645.06
2022-12-03T05:31:26.759Z,102645.94
2022-12-03T05:33:54.706Z,102644.19
2022-12-03T05:36:21.394Z,102639.81
2022-12-03T05:38:47.868Z,102644.16
2022-12-03T05:41:32.904Z,102637.22
2022-12-03T05:43:59.407Z,102634.59
2022-12-03T05:46:25.909Z,102645.03
2022-12-03T05:48:52.722Z,102644.19
2022-12-03T05:51:19.193Z,102633.69
2022-12-03T05:53:45.692Z,102636.28
2022-12-03T05:56:12.463Z,102634.53
2022-12-03T05:58:39.131Z,102629.34
2022-12-03T06:01:05.770Z,102624.13
2022-12-03T06:03:32.563Z,102611.91
2022-12-03T06:05:59.380Z,102620.59
2022-12-03T06:08:25.839Z,102618.88
2022-12-03T06:10:52.375Z,102622.31
2022-12-03T06:13:18.873Z,102620.59
2022-12-03T06:15:45.659Z,102614.47
2022-12-03T06:18:12.309Z,102609.28
2022-12-03T06:20:39.156Z,102611.03
2022-12-03T06:23:05.625Z,102613.66
2022-12-03T06:25:32.282Z,102606.66
2022-12-03T06:27:58.765Z,102596.19
2022-12-03T06:30:25.199Z,102603.13
2022-12-03T06:32:51.736Z,102604.94
2022-12-03T06:35:18.168Z,102605.81
2022-12-03T06:37:44.661Z,102607.59
2022-12-03T06:40:11.869Z,102591.03
2022-12-03T06:42:38.330Z,102602.34
2022-12-03T06:45:05.265Z,102611.00
2022-12-03T06:47:31.751Z,102607.56
2022-12-03T06:49:58.278Z,102609.31
2022-12-03T06:52:24.860Z,102606.75
2022-12-03T06:54:51.457Z,102607.56
2022-12-03T06:57:18.279Z,102614.53
2022-12-03T06:59:44.950Z,102607.59
2022-12-03T07:02:12.733Z,102618.94
2022-12-03T07:04:43.423Z,102607.66
2022-12-03T07:07:12.683Z,102612.88
2022-12-03T07:09:39.207Z,102612.00
2022-12-03T07:12:06.066Z,102616.31
2022-12-03T07:14:32.712Z,102614.56
2022-12-03T07:16:59.285Z,102613.72
2022-12-03T07:19:32.077Z,102612.88
2022-12-03T07:21:59.284Z,102614.56
2022-12-03T07:24:25.837Z,102611.97
2022-12-03T07:26:52.476Z,102616.28
2022-12-03T07:29:19.046Z,102610.22
2022-12-03T07:31:45.706Z,102618.91
2022-12-03T07:34:12.340Z,102611.06
2022-12-03T07:36:39.123Z,102616.28
2022-12-03T07:39:05.760Z,102615.47
2022-12-03T07:41:32.332Z,102623.34
2022-12-03T07:43:58.834Z,102616.34
2022-12-03T07:46:25.516Z,102615.47
2022-12-03T07:48:52.159Z,102625.06
2022-12-03T07:51:18.757Z,102615.47
2022-12-03T07:53:45.263Z,102616.38
2022-12-03T07:56:11.917Z,102617.25
2022-12-03T07:58:38.751Z,102618.13
2022-12-03T08:01:05.416Z,102623.38
2022-12-03T08:03:31.986Z,102618.16
2022-12-03T08:05:59.233Z,102617.25
2022-12-03T08:08:29.672Z,102611.16
2022-12-03T08:13:57.469Z,102607.66
2022-12-03T08:16:23.995Z,102595.44
2022-12-03T08:18:51.476Z,102614.66
2022-12-03T08:21:21.116Z,102614.66
2022-12-03T08:23:48.227Z,102621.59
2022-12-03T08:26:24.974Z,102607.63
2022-12-03T08:28:52.482Z,102611.16
2022-12-03T08:31:32.319Z,102612.03
2022-12-03T08:34:15.424Z,102606.81
2022-12-03T08:36:42.015Z,102598.97
2022-12-03T08:39:34.733Z,102609.47
2022-12-03T08:42:41.859Z,102599.88
2022-12-03T08:45:39.293Z,102597.28
2022-12-03T08:48:22.357Z,102597.28
2022-12-03T08:50:48.856Z,102592.91
2022-12-03T08:53:29.171Z,102587.69
2022-12-03T08:56:19.183Z,102587.66
2022-12-03T08:58:48.542Z,102592.91
2022-12-03T09:01:41.982Z,102592.88
2022-12-03T09:04:23.295Z,102597.28
2022-12-03T09:06:51.401Z,102599.88
2022-12-03T09:09:18.232Z,102599.91
2022-12-03T09:11:45.172Z,102594.69
2022-12-03T09:14:18.130Z,102599.06
2022-12-03T09:16:45.299Z,102599.94
2022-12-03T09:19:11.842Z,102589.47
2022-12-03T09:21:38.273Z,102595.56
2022-12-03T09:24:04.944Z,102593.81
2022-12-03T09:26:31.456Z,102586.03
2022-12-03T09:28:58.055Z,102579.94
2022-12-03T09:31:24.585Z,102595.66
2022-12-03T09:33:51.246Z,102584.31
2022-12-03T09:36:17.902Z,102587.81
2022-12-03T09:38:47.592Z,102594.81
2022-12-03T09:41:14.531Z,102589.56
2022-12-03T09:44:03.294Z,102598.25
2022-12-03T09:46:29.281Z,102599.16
2022-12-03T09:48:55.928Z,102589.53
2022-12-03T09:51:27.994Z,102596.53
2022-12-03T09:53:54.499Z,102596.53
2022-12-03T09:56:23.308Z,102595.63
2022-12-03T09:58:50.520Z,102602.59
2022-12-03T10:01:17.951Z,102593.88
2022-12-03T10:03:47.849Z,102600.81
2022-12-03T10:06:20.885Z,102593.03
2022-12-03T10:08:49.945Z,102591.28
2022-12-03T10:11:18.539Z,102599.16
2022-12-03T10:13:46.196Z,102587.84
2022-12-03T10:16:15.843Z,102584.34
2022-12-03T10:18:48.581Z,102587.84
2022-12-03T10:21:32.427Z,102584.38
2022-12-03T10:24:20.272Z,102580.88
2022-12-03T10:26:48.868Z,102580.84
2022-12-03T10:29:18.471Z,102581.75
2022-12-03T10:31:45.431Z,102578.19
2022-12-03T10:34:11.977Z,102573.84
2022-12-03T10:36:38.635Z,102571.28
2022-12-03T10:39:15.731Z,102563.44
2022-12-03T10:41:43.943Z,102566.03
2022-12-03T10:44:23.742Z,102559.06
2022-12-03T10:47:20.983Z,102558.19
2022-12-03T10:50:03.201Z,102552.97
2022-12-03T10:52:29.909Z,102546.00
2022-12-03T10:54:56.785Z,102552.13
2022-12-03T10:57:23.850Z,102550.38
2022-12-03T10:59:50.900Z,102541.63
2022-12-03T11:02:23.444Z,102539.88
2022-12-03T11:04:51.279Z,102542.44
2022-12-03T11:07:20.012Z,102535.47
2022-12-03T11:09:49.742Z,102535.50
2022-12-03T11:12:20.835Z,102537.19
2022-12-03T11:14:54.430Z,102531.09
2022-12-03T11:17:51.561Z,102533.69
2022-12-03T11:20:22.798Z,102531.94
2022-12-03T11:22:56.259Z,102531.06
2022-12-03T11:25:25.876Z,102539.78
2022-12-03T11:28:10.450Z,102528.47
2022-12-03T11:30:49.273Z,102522.34
2022-12-03T11:33:23.668Z,102535.41
2022-12-03T11:36:10.641Z,102521.47
2022-12-03T11:38:37.228Z,102522.34
2022-12-03T11:41:15.805Z,102515.34
2022-12-03T11:43:58.377Z,102518.00
2022-12-03T11:46:39.212Z,102518.03
2022-12-03T11:49:28.901Z,102508.47
2022-12-03T11:51:55.880Z,102506.75
2022-12-03T11:54:24.200Z,102500.66
2022-12-03T11:56:52.528Z,102496.28
2022-12-03T11:59:19.668Z,102499.78
2022-12-03T12:01:46.419Z,102498.91
2022-12-03T12:04:34.356Z,102498.03
2022-12-03T12:07:01.562Z,102485.84
2022-12-03T12:09:51.052Z,102491.97
2022-12-03T12:12:31.222Z,102489.34
2022-12-03T12:14:59.088Z,102478.91
2022-12-03T12:17:34.483Z,102478.03
2022-12-03T12:20:12.499Z,102471.06
2022-12-03T12:22:39.368Z,102466.69
2022-12-03T12:25:39.704Z,102460.56
2022-12-03T12:28:06.846Z,102456.22
2022-12-03T12:30:33.560Z,102462.34
2022-12-03T12:33:23.312Z,102464.09
2022-12-03T12:35:50.823Z,102456.28
2022-12-03T12:38:22.576Z,102455.44
2022-12-03T12:40:50.372Z,102458.03
2022-12-03T12:43:25.752Z,102458.00
2022-12-03T12:45:54.907Z,102457.13
2022-12-03T12:48:27.168Z,102452.75
2022-12-03T12:51:20.825Z,102445.78
2022-12-03T12:53:49.040Z,102455.41
2022-12-03T12:56:27.393Z,102452.81
2022-12-03T12:58:56.461Z,102451.09
2022-12-03T13:01:31.526Z,102442.34
2022-12-03T13:03:59.448Z,102439.72
2022-12-03T13:06:30.065Z,102437.09
2022-12-03T13:08:57.383Z,102444.09
2022-12-03T13:11:42.314Z,102446.66
2022-12-03T13:14:20.197Z,102440.63
2022-12-03T13:16:48.243Z,102438.88
2022-12-03T13:19:43.155Z,102432.81
2022-12-03T13:22:19.017Z,102420.63
2022-12-03T13:24:53.532Z,102424.06
2022-12-03T13:27:19.972Z,102431.03
2022-12-03T13:29:50.879Z,102424.03
2022-12-03T13:32:23.324Z,102428.41
2022-12-03T13:34:52.656Z,102426.66
2022-12-03T13:37:28.136Z,102424.91
2022-12-03T13:39:57.196Z,102413.63
2022-12-03T13:42:46.549Z,102422.31
2022-12-03T13:45:16.061Z,102423.25
2022-12-03T13:47:48.763Z,102417.13
2022-12-03T13:50:32.467Z,102420.63
2022-12-03T13:53:01.496Z,102422.38
2022-12-03T13:55:31.158Z,102418.03
2022-12-03T13:57:58.235Z,102418.88
2022-12-03T14:00:24.894Z,102414.53
2022-12-03T14:02:51.586Z,102408.41
2022-12-03T14:05:18.268Z,102404.94
2022-12-03T14:07:44.890Z,102404.97
2022-12-03T14:10:12.007Z,102398.03
2022-12-03T14:12:38.842Z,102401.50
2022-12-03T14:15:06.445Z,102387.59
2022-12-03T14:17:50.894Z,102403.25
2022-12-03T14:20:18.123Z,102402.38
2022-12-03T14:22:44.661Z,102397.13
2022-12-03T14:25:11.763Z,102392.81
2022-12-03T14:27:38.339Z,102400.63
2022-12-03T14:30:05.575Z,102389.28
2022-12-03T14:32:31.991Z,102392.75
2022-12-03T14:34:58.594Z,102400.63
2022-12-03T14:37:25.059Z,102395.41
2022-12-03T14:39:55.064Z,102392.81
2022-12-03T14:42:21.646Z,102381.53
2022-12-03T14:44:52.082Z,102389.38
2022-12-03T14:47:22.550Z,102384.09
2022-12-03T14:49:49.883Z,102379.75
2022-12-03T14:52:17.228Z,102382.38
2022-12-03T14:54:44.574Z,102379.81
2022-12-03T14:57:12.861Z,102373.72
2022-12-03T14:59:43.705Z,102381.59
2022-12-03T15:02:11.374Z,102382.47
2022-12-03T15:04:39.587Z,102379.84
2022-12-03T15:07:06.175Z,102376.41
2022-12-03T15:09:32.690Z,102379.88
2022-12-03T15:11:59.998Z,102378.97
2022-12-03T15:14:26.820Z,102384.22
2022-12-03T15:16:53.545Z,102380.75
2022-12-03T15:19:20.200Z,102373.78
2022-12-03T15:21:46.663Z,102365.91
2022-12-03T15:24:13.246Z,102371.09
2022-12-03T15:26:39.718Z,102380.72
2022-12-03T15:29:06.276Z,102373.75
2022-12-03T15:31:46.635Z,102381.59
2022-12-03T15:34:22.133Z,102372.06
2022-12-03T15:36:55.332Z,102372.94
2022-12-03T15:39:22.355Z,102358.19
2022-12-03T15:41:49.205Z,102366.84
2022-12-03T15:44:17.275Z,102360.75
2022-12-03T15:46:46.864Z,102365.97
2022-12-03T15:49:16.139Z,102379.91
2022-12-03T15:51:45.389Z,102367.72
2022-12-03T15:54:12.531Z,102372.06
2022-12-03T15:56:39.311Z,102392.06
2022-12-03T15:59:06.139Z,102382.53
2022-12-03T16:01:33.142Z,102369.50
2022-12-03T16:04:05.115Z,102374.72
2022-12-03T16:06:32.046Z,102371.22
2022-12-03T16:09:47.264Z,102365.19
2022-12-03T16:12:16.136Z,102363.44
2022-12-03T16:17:30.275Z,102365.19
2022-12-03T16:20:07.168Z,102361.72
2022-12-03T16:22:36.060Z,102368.66
2022-12-03T16:25:08.891Z,102364.31
2022-12-03T16:27:37.532Z,102366.91
2022-12-03T16:30:06.024Z,102367.78
2022-12-03T16:32:38.029Z,102365.19
2022-12-03T16:35:05.724Z,102368.66
2022-12-03T16:37:38.937Z,102384.31
2022-12-03T16:40:12.279Z,102354.72
2022-12-03T16:42:41.543Z,102369.50
2022-12-03T16:45:11.284Z,102368.66
2022-12-03T16:47:46.394Z,102372.13
2022-12-03T16:50:23.048Z,102354.78
2022-12-03T16:55:45.611Z,102353.91
2022-12-03T16:58:22.114Z,102359.97
2022-12-03T17:00:53.564Z,102346.13
2022-12-03T17:03:26.637Z,102375.63
2022-12-03T17:06:01.032Z,102345.25
2022-12-03T17:08:33.337Z,102345.25
2022-12-03T17:11:13.788Z,102348.75
2022-12-03T17:13:45.634Z,102353.97
2022-12-03T17:16:21.250Z,102360.94
2022-12-03T17:18:48.348Z,102340.91
2022-12-03T17:21:18.768Z,102351.38
2022-12-03T17:23:48.954Z,102358.31
2022-12-03T17:26:15.924Z,102353.09
2022-12-03T17:28:44.259Z,102364.41
2022-12-03T17:31:14.795Z,102359.19
2022-12-03T17:33:44.099Z,102355.72
2022-12-03T17:36:17.150Z,102360.91
2022-12-03T17:38:50.007Z,102346.16
2022-12-03T17:41:21.387Z,102356.56
2022-12-03T17:43:50.555Z,102359.19
2022-12-03T17:46:17.547Z,102380.03
2022-12-03T17:48:47.205Z,102348.75
2022-12-03T17:51:19.288Z,102342.69
2022-12-03T17:53:51.715Z,102350.50
2022-12-03T17:56:27.753Z,102353.97
2022-12-03T17:58:54.582Z,102362.66
2022-12-03T18:01:21.474Z,102360.91
2022-12-03T18:03:53.151Z,102359.19
2022-12-03T18:06:24.003Z,102359.19
2022-12-03T18:08:54.551Z,102345.31
2022-12-03T18:11:29.035Z,102347.03
2022-12-03T18:13:55.962Z,102329.66
2022-12-03T18:16:29.180Z,102338.34
2022-12-03T18:19:06.313Z,102336.59
2022-12-03T18:21:42.553Z,102341.81
2022-12-03T18:24:46.233Z,102333.97
2022-12-03T18:27:16.018Z,102329.63
2022-12-03T18:29:51.415Z,102324.41
2022-12-03T18:32:29.397Z,102337.44
2022-12-03T18:35:01.706Z,102319.19
2022-12-03T18:37:30.139Z,102318.31
2022-12-03T18:39:58.174Z,102327.00
2022-12-03T18:42:30.028Z,102332.22
2022-12-03T18:44:57.321Z,102318.31
2022-12-03T18:47:31.042Z,102316.59
2022-12-03T18:50:00.389Z,102317.47
2022-12-03T18:52:33.445Z,102314.00
2022-12-03T18:55:00.391Z,102328.78
2022-12-03T18:57:27.436Z,102317.47
2022-12-03T19:00:03.531Z,102332.25
2022-12-03T19:03:01.245Z,102333.97
2022-12-03T19:05:25.039Z,102329.63
2022-12-03T19:07:55.150Z,102310.50
2022-12-03T19:10:28.272Z,102311.38
2022-12-03T19:12:59.890Z,102329.66
2022-12-03T19:15:35.377Z,102312.25
2022-12-03T19:18:07.892Z,102309.66
2022-12-03T19:20:39.523Z,102329.63
2022-12-03T19:23:08.738Z,102314.00
2022-12-03T19:25:44.916Z,102305.31
2022-12-03T19:28:11.939Z,102306.19
2022-12-03T19:30:41.397Z,102332.22
2022-12-03T19:33:18.064Z,102307.91
2022-12-03T19:35:49.288Z,102316.59
2022-12-03T19:38:18.471Z,102316.59
2022-12-03T19:41:05.438Z,102331.38
2022-12-03T19:43:37.560Z,102309.66
2022-12-03T19:46:10.986Z,102306.16
2022-12-03T19:48:40.919Z,102317.47
2022-12-03T19:51:32.918Z,102304.44
2022-12-03T19:54:05.064Z,102311.41
2022-12-03T19:56:34.704Z,102295.72
2022-12-03T19:59:01.793Z,102300.06
2022-12-03T20:01:40.454Z,102335.72
2022-12-03T20:04:11.709Z,102327.88
2022-12-03T20:06:50.522Z,102312.25
2022-12-03T20:09:28.327Z,102312.25
2022-12-03T20:11:57.463Z,102320.06
2022-12-03T20:14:34.325Z,102287.91
2022-12-03T20:17:13.271Z,102290.53
2022-12-03T20:19:40.233Z,102308.78
2022-12-03T20:22:09.047Z,102307.03
2022-12-03T20:24:35.651Z,102314.88
2022-12-03T20:27:02.212Z,102317.47
2022-12-03T20:29:30.223Z,102318.34
2022-12-03T20:31:59.106Z,102318.34
2022-12-03T20:34:25.619Z,102319.19
2022-12-03T20:36:52.089Z,102321.81
2022-12-03T20:39:18.583Z,102313.13
2022-12-03T20:41:45.224Z,102317.47
2022-12-03T20:44:14.046Z,102308.78
2022-12-03T20:46:40.615Z,102306.16
2022-12-03T20:49:07.239Z,102298.31
2022-12-03T20:51:34.264Z,102296.56
2022-12-03T20:54:01.740Z,102300.94
2022-12-03T20:56:31.675Z,102296.59
2022-12-03T20:59:07.074Z,102299.22
2022-12-03T21:01:35.912Z,102300.97
2022-12-03T21:04:04.257Z,102294.84
2022-12-03T21:06:31.057Z,102294.88
2022-12-03T21:08:58.813Z,102299.22
2022-12-03T21:11:29.719Z,102294.00
2022-12-03T21:13:58.942Z,102293.13
2022-12-03T21:16:59.144Z,102287.91
2022-12-03T21:19:20.198Z,102284.44
2022-12-03T21:21:46.955Z,102281.81
2022-12-03T21:24:15.881Z,102287.91
2022-12-03T21:26:45.512Z,102280.94
2022-12-03T21:29:12.110Z,102278.34
2022-12-03T21:31:41.086Z,102275.72
2022-12-03T21:34:19.862Z,102275.72
2022-12-03T21:36:46.588Z,102260.06
2022-12-03T21:39:14.438Z,102260.94
2022-12-03T21:41:41.036Z,102267.03
2022-12-03T21:44:36.748Z,102258.34
2022-12-03T21:47:11.391Z,102253.13
2022-12-03T21:49:42.720Z,102272.25
2022-12-03T21:52:12.465Z,102255.75
2022-12-03T21:54:43.236Z,102262.75
2022-12-03T21:57:10.195Z,102287.03
2022-12-03T21:59:40.173Z,102266.22
2022-12-03T22:02:27.776Z,102267.97
2022-12-03T22:04:54.754Z,102274.91
2022-12-03T22:07:23.569Z,102271.38
2022-12-03T22:09:56.731Z,102270.50
2022-12-03T22:12:26.348Z,102255.78
2022-12-03T22:14:57.992Z,102253.16
2022-12-03T22:17:27.734Z,102247.06
2022-12-03T22:20:08.258Z,102240.16
2022-12-03T22:22:35.264Z,102252.31
2022-12-03T22:25:05.384Z,102257.53
2022-12-03T22:27:32.479Z,102244.47
2022-12-03T22:29:59.414Z,102242.75
2022-12-03T22:32:34.005Z,102263.56
2022-12-03T22:35:03.127Z,102252.34
2022-12-03T22:37:35.489Z,102238.41
2022-12-03T22:40:06.093Z,102262.75
2022-12-03T22:42:32.767Z,102253.19
2022-12-03T22:44:59.366Z,102260.13
2022-12-03T22:47:26.536Z,102271.44
2022-12-03T22:49:56.517Z,102258.38
2022-12-03T22:52:24.025Z,102270.53
2022-12-03T22:54:54.225Z,102249.72
2022-12-03T22:57:28.886Z,102254.06
2022-12-03T23:00:00.497Z,102246.22
2022-12-03T23:02:34.056Z,102254.03
2022-12-03T23:05:01.261Z,102260.97
2022-12-03T23:07:28.602Z,102233.19
2022-12-03T23:09:55.567Z,102248.84
2022-12-03T23:12:22.337Z,102254.88
2022-12-03T23:14:52.780Z,102254.03
2022-12-03T23:17:19.264Z,102256.63
2022-12-03T23:19:45.865Z,102260.09
2022-12-03T23:22:15.155Z,102255.75
2022-12-03T23:24:41.631Z,102253.13
2022-12-03T23:27:08.119Z,102257.50
2022-12-03T23:29:35.164Z,102263.56
2022-12-03T23:32:01.636Z,102264.44
2022-12-03T23:34:28.216Z,102261.81
2022-12-03T23:36:54.868Z,102260.09
2022-12-03T23:39:21.385Z,102255.75
2022-12-03T23:41:51.062Z,102253.13
2022-12-03T23:44:17.629Z,102254.88
2022-12-03T23:46:44.192Z,102249.66
2022-12-03T23:49:10.841Z,102251.41
2022-12-03T23:51:37.343Z,102255.75
2022-12-03T23:54:03.884Z,102248.81
2022-12-03T23:56:30.782Z,102243.59
2022-12-03T23:58:57.970Z,102244.44
